KOAK/OAK METAR and TAF weather

Enter ICAO airport designator
Station Type Date Time Source
KOAK METAR 2018/12/10 08:53 UTC NOAA

KOAK 100853Z 00000KT 6SM BR FEW220 07/06 A3025 RMK AO2 SLP242 T00720061 58005


Station Type Date Time Source
KOAK Decoded METAR 2018/12/10 08:53 UTC NOAA

METRO OAKLAND INTERNATIONAL AIRPORT , CA, United States (KOAK) 37-43N 122-14W 26M
Dec 10, 2018 - 03:53 AM EST / 2018.12.10 0853 UTC
Wind: Calm:0
Visibility: 6 mile(s):0
Sky conditions: mostly clear
Weather: mist
Temperature: 45.0 F (7.2 C)
Dew Point: 43.0 F (6.1 C)
Relative Humidity: 92%
Pressure (altimeter): 30.25 in. Hg (1024 hPa)
Pressure tendency: 0.01 inches (0.5 hPa) lower than three hours ago
ob: KOAK 100853Z 00000KT 6SM BR FEW220 07/06 A3025 RMK AO2 SLP242 T00720061 58005
cycle: 9

Station Type Date Time Source
KOAK TAF 2018/12/10 06:39 UTC NOAA

TAF KOAK 100536Z 1006/1112 12004KT P6SM FEW012 BKN150
FM100900 05005KT 6SM HZ VCSH FEW012 OVC050
FM101900 28006KT P6SM VCSH SCT020 BKN040 OVC150
FM110300 28004KT P6SM SCT040 BKN150
FM110800 VRB03KT P6SM SCT040


Example: see airport list